sensor_id;sensor_type;location;lat;lon;timestamp;P1;P2;P0
57049;PMS7003;42935;50.966;16.992;2023-12-20T00:02:15;23;18;13
57049;PMS7003;42935;50.966;16.992;2023-12-20T00:05:35;26;19;11
57049;PMS7003;42935;50.966;16.992;2023-12-20T00:09:00;21;16;10
57049;PMS7003;42935;50.966;16.992;2023-12-20T00:12:20;19;17;11
57049;PMS7003;42935;50.966;16.992;2023-12-20T00:15:38;16;15;11
57049;PMS7003;42935;50.966;16.992;2023-12-20T00:19:06;19;14;9
57049;PMS7003;42935;50.966;16.992;2023-12-20T00:22:56;19;16;12
57049;PMS7003;42935;50.966;16.992;2023-12-20T00:26:17;22;18;12
57049;PMS7003;42935;50.966;16.992;2023-12-20T00:29:33;22;20;15
57049;PMS7003;42935;50.966;16.992;2023-12-20T00:32:55;25;22;15
57049;PMS7003;42935;50.966;16.992;2023-12-20T00:36:17;23;19;14
57049;PMS7003;42935;50.966;16.992;2023-12-20T00:39:43;21;18;12
57049;PMS7003;42935;50.966;16.992;2023-12-20T00:43:04;22;17;12
57049;PMS7003;42935;50.966;16.992;2023-12-20T00:46:23;23;19;13
57049;PMS7003;42935;50.966;16.992;2023-12-20T00:49:44;23;19;12
57049;PMS7003;42935;50.966;16.992;2023-12-20T00:53:08;28;20;13
57049;PMS7003;42935;50.966;16.992;2023-12-20T00:56:25;19;16;13
57049;PMS7003;42935;50.966;16.992;2023-12-20T00:59:46;18;14;10
57049;PMS7003;42935;50.966;16.992;2023-12-20T01:03:07;19;16;12
57049;PMS7003;42935;50.966;16.992;2023-12-20T01:06:23;18;13;9
57049;PMS7003;42935;50.966;16.992;2023-12-20T01:09:50;19;13;9
57049;PMS7003;42935;50.966;16.992;2023-12-20T01:13:09;18;12;9
57049;PMS7003;42935;50.966;16.992;2023-12-20T01:16:31;17;15;11
57049;PMS7003;42935;50.966;16.992;2023-12-20T01:19:54;17;16;11
57049;PMS7003;42935;50.966;16.992;2023-12-20T01:23:12;15;13;9
57049;PMS7003;42935;50.966;16.992;2023-12-20T01:26:37;26;19;13
57049;PMS7003;42935;50.966;16.992;2023-12-20T01:30:03;18;14;10
57049;PMS7003;42935;50.966;16.992;2023-12-20T01:33:23;16;14;10
57049;PMS7003;42935;50.966;16.992;2023-12-20T01:36:48;19;15;11
57049;PMS7003;42935;50.966;16.992;2023-12-20T01:40:11;19;15;10
57049;PMS7003;42935;50.966;16.992;2023-12-20T01:43:29;22;17;12
57049;PMS7003;42935;50.966;16.992;2023-12-20T01:46:48;20;15;11
57049;PMS7003;42935;50.966;16.992;2023-12-20T01:50:09;22;18;13
57049;PMS7003;42935;50.966;16.992;2023-12-20T01:53:31;25;18;13
57049;PMS7003;42935;50.966;16.992;2023-12-20T01:56:54;22;18;12
57049;PMS7003;42935;50.966;16.992;2023-12-20T02:00:15;23;17;13
57049;PMS7003;42935;50.966;16.992;2023-12-20T02:03:43;28;22;13
57049;PMS7003;42935;50.966;16.992;2023-12-20T02:07:05;24;18;14
57049;PMS7003;42935;50.966;16.992;2023-12-20T02:10:27;30;19;12
57049;PMS7003;42935;50.966;16.992;2023-12-20T02:13:47;26;20;15
57049;PMS7003;42935;50.966;16.992;2023-12-20T02:17:03;20;19;14
57049;PMS7003;42935;50.966;16.992;2023-12-20T02:20:25;26;21;15
57049;PMS7003;42935;50.966;16.992;2023-12-20T02:23:42;26;21;14
57049;PMS7003;42935;50.966;16.992;2023-12-20T02:27:35;32;24;16
57049;PMS7003;42935;50.966;16.992;2023-12-20T02:31:00;24;22;15
57049;PMS7003;42935;50.966;16.992;2023-12-20T02:34:21;30;24;17
57049;PMS7003;42935;50.966;16.992;2023-12-20T02:37:40;29;24;15
57049;PMS7003;42935;50.966;16.992;2023-12-20T02:40:56;27;25;18
57049;PMS7003;42935;50.966;16.992;2023-12-20T02:44:15;36;31;21
57049;PMS7003;42935;50.966;16.992;2023-12-20T02:47:39;30;28;19
57049;PMS7003;42935;50.966;16.992;2023-12-20T02:51:07;36;28;19
57049;PMS7003;42935;50.966;16.992;2023-12-20T02:54:30;38;30;19
57049;PMS7003;42935;50.966;16.992;2023-12-20T02:57:57;40;33;22
57049;PMS7003;42935;50.966;16.992;2023-12-20T03:01:18;38;31;20
57049;PMS7003;42935;50.966;16.992;2023-12-20T03:04:39;37;27;19
57049;PMS7003;42935;50.966;16.992;2023-12-20T03:08:09;39;28;16
57049;PMS7003;42935;50.966;16.992;2023-12-20T03:11:41;33;29;19
57049;PMS7003;42935;50.966;16.992;2023-12-20T03:14:57;40;31;21
57049;PMS7003;42935;50.966;16.992;2023-12-20T03:18:13;34;27;18
57049;PMS7003;42935;50.966;16.992;2023-12-20T03:21:30;36;29;20
57049;PMS7003;42935;50.966;16.992;2023-12-20T03:24:49;40;33;22
57049;PMS7003;42935;50.966;16.992;2023-12-20T03:28:16;39;35;24
57049;PMS7003;42935;50.966;16.992;2023-12-20T03:31:43;39;30;19
57049;PMS7003;42935;50.966;16.992;2023-12-20T03:35:04;35;30;19
57049;PMS7003;42935;50.966;16.992;2023-12-20T03:38:25;37;32;21
57049;PMS7003;42935;50.966;16.992;2023-12-20T03:41:45;43;32;21
57049;PMS7003;42935;50.966;16.992;2023-12-20T03:45:07;44;33;21
57049;PMS7003;42935;50.966;16.992;2023-12-20T03:48:33;41;34;22
57049;PMS7003;42935;50.966;16.992;2023-12-20T03:51:58;43;34;21
57049;PMS7003;42935;50.966;16.992;2023-12-20T03:55:17;37;28;18
57049;PMS7003;42935;50.966;16.992;2023-12-20T03:58:38;36;30;18
57049;PMS7003;42935;50.966;16.992;2023-12-20T04:02:06;34;28;18
57049;PMS7003;42935;50.966;16.992;2023-12-20T04:05:26;30;26;17
57049;PMS7003;42935;50.966;16.992;2023-12-20T04:08:50;33;26;16
57049;PMS7003;42935;50.966;16.992;2023-12-20T04:12:15;34;26;16
57049;PMS7003;42935;50.966;16.992;2023-12-20T04:15:31;31;23;17
57049;PMS7003;42935;50.966;16.992;2023-12-20T04:18:52;28;25;16
57049;PMS7003;42935;50.966;16.992;2023-12-20T04:22:12;28;23;15
57049;PMS7003;42935;50.966;16.992;2023-12-20T04:25:32;22;19;14
57049;PMS7003;42935;50.966;16.992;2023-12-20T04:28:59;24;20;13
57049;PMS7003;42935;50.966;16.992;2023-12-20T04:32:16;20;19;13
57049;PMS7003;42935;50.966;16.992;2023-12-20T04:35:33;24;19;12
57049;PMS7003;42935;50.966;16.992;2023-12-20T04:38:53;16;14;10
57049;PMS7003;42935;50.966;16.992;2023-12-20T04:42:14;14;11;7
57049;PMS7003;42935;50.966;16.992;2023-12-20T04:45:32;13;8;7
57049;PMS7003;42935;50.966;16.992;2023-12-20T04:48:57;10;9;6
57049;PMS7003;42935;50.966;16.992;2023-12-20T04:52:15;12;8;6
57049;PMS7003;42935;50.966;16.992;2023-12-20T04:55:40;9;6;4
57049;PMS7003;42935;50.966;16.992;2023-12-20T04:59:02;9;6;5
57049;PMS7003;42935;50.966;16.992;2023-12-20T05:02:22;9;9;6
57049;PMS7003;42935;50.966;16.992;2023-12-20T05:05:43;11;9;6
57049;PMS7003;42935;50.966;16.992;2023-12-20T05:09:01;7;6;5
57049;PMS7003;42935;50.966;16.992;2023-12-20T05:12:18;10;6;5
57049;PMS7003;42935;50.966;16.992;2023-12-20T05:15:39;9;6;5
57049;PMS7003;42935;50.966;16.992;2023-12-20T05:18:57;7;6;5
57049;PMS7003;42935;50.966;16.992;2023-12-20T05:22:27;8;5;4
57049;PMS7003;42935;50.966;16.992;2023-12-20T05:25:47;6;4;2
57049;PMS7003;42935;50.966;16.992;2023-12-20T05:29:04;8;5;4
57049;PMS7003;42935;50.966;16.992;2023-12-20T05:32:27;5;5;4
57049;PMS7003;42935;50.966;16.992;2023-12-20T05:35:44;13;7;5
57049;PMS7003;42935;50.966;16.992;2023-12-20T05:39:00;12;11;7
57049;PMS7003;42935;50.966;16.992;2023-12-20T05:42:26;12;10;7
57049;PMS7003;42935;50.966;16.992;2023-12-20T05:45:45;14;9;6
57049;PMS7003;42935;50.966;16.992;2023-12-20T05:49:08;13;9;6
57049;PMS7003;42935;50.966;16.992;2023-12-20T05:52:29;10;8;5
57049;PMS7003;42935;50.966;16.992;2023-12-20T05:55:52;8;5;4
57049;PMS7003;42935;50.966;16.992;2023-12-20T05:59:20;8;4;2
57049;PMS7003;42935;50.966;16.992;2023-12-20T06:03:11;6;4;2
57049;PMS7003;42935;50.966;16.992;2023-12-20T06:06:29;5;3;2
57049;PMS7003;42935;50.966;16.992;2023-12-20T06:09:45;5;4;3
57049;PMS7003;42935;50.966;16.992;2023-12-20T06:13:10;8;6;5
57049;PMS7003;42935;50.966;16.992;2023-12-20T06:16:34;14;8;6
57049;PMS7003;42935;50.966;16.992;2023-12-20T06:19:55;10;8;6
57049;PMS7003;42935;50.966;16.992;2023-12-20T06:23:14;11;8;5
57049;PMS7003;42935;50.966;16.992;2023-12-20T06:26:35;13;8;5
57049;PMS7003;42935;50.966;16.992;2023-12-20T06:29:53;11;9;5
57049;PMS7003;42935;50.966;16.992;2023-12-20T06:33:14;15;10;7
57049;PMS7003;42935;50.966;16.992;2023-12-20T06:36:37;12;8;6
57049;PMS7003;42935;50.966;16.992;2023-12-20T06:39:58;11;8;5
57049;PMS7003;42935;50.966;16.992;2023-12-20T06:43:18;9;7;5
57049;PMS7003;42935;50.966;16.992;2023-12-20T06:46:39;7;5;4
57049;PMS7003;42935;50.966;16.992;2023-12-20T06:50:00;5;4;4
57049;PMS7003;42935;50.966;16.992;2023-12-20T06:53:21;4;4;3
57049;PMS7003;42935;50.966;16.992;2023-12-20T06:57:13;4;2;2
57049;PMS7003;42935;50.966;16.992;2023-12-20T07:00:31;6;3;2
57049;PMS7003;42935;50.966;16.992;2023-12-20T07:03:55;2;2;2
57049;PMS7003;42935;50.966;16.992;2023-12-20T07:07:11;3;2;1
57049;PMS7003;42935;50.966;16.992;2023-12-20T07:10:32;4;2;1
57049;PMS7003;42935;50.966;16.992;2023-12-20T07:13:53;4;2;1
57049;PMS7003;42935;50.966;16.992;2023-12-20T07:17:14;2;2;1
57049;PMS7003;42935;50.966;16.992;2023-12-20T07:20:35;1;1;1
57049;PMS7003;42935;50.966;16.992;2023-12-20T07:23:57;3;2;1
57049;PMS7003;42935;50.966;16.992;2023-12-20T07:27:21;2;1;1
57049;PMS7003;42935;50.966;16.992;2023-12-20T07:30:43;4;2;1
57049;PMS7003;42935;50.966;16.992;2023-12-20T07:34:07;2;1;1
57049;PMS7003;42935;50.966;16.992;2023-12-20T07:37:25;4;3;2
57049;PMS7003;42935;50.966;16.992;2023-12-20T07:40:45;2;2;2
57049;PMS7003;42935;50.966;16.992;2023-12-20T07:44:04;4;3;2
57049;PMS7003;42935;50.966;16.992;2023-12-20T07:47:26;5;3;2
57049;PMS7003;42935;50.966;16.992;2023-12-20T07:50:47;6;4;3
57049;PMS7003;42935;50.966;16.992;2023-12-20T07:54:07;7;2;1
57049;PMS7003;42935;50.966;16.992;2023-12-20T07:57:31;4;3;2
57049;PMS7003;42935;50.966;16.992;2023-12-20T08:00:52;5;4;3
57049;PMS7003;42935;50.966;16.992;2023-12-20T08:04:11;6;5;3
57049;PMS7003;42935;50.966;16.992;2023-12-20T08:07:35;8;6;4
57049;PMS7003;42935;50.966;16.992;2023-12-20T08:10:55;8;6;4
57049;PMS7003;42935;50.966;16.992;2023-12-20T08:14:14;6;5;4
57049;PMS7003;42935;50.966;16.992;2023-12-20T08:17:35;9;6;5
57049;PMS7003;42935;50.966;16.992;2023-12-20T08:20:56;8;6;4
57049;PMS7003;42935;50.966;16.992;2023-12-20T08:24:45;7;5;4
57049;PMS7003;42935;50.966;16.992;2023-12-20T08:28:03;5;4;3
57049;PMS7003;42935;50.966;16.992;2023-12-20T08:31:22;7;5;4
57049;PMS7003;42935;50.966;16.992;2023-12-20T08:34:43;7;5;3
57049;PMS7003;42935;50.966;16.992;2023-12-20T08:38:08;8;4;3
57049;PMS7003;42935;50.966;16.992;2023-12-20T08:41:28;11;7;5
57049;PMS7003;42935;50.966;16.992;2023-12-20T08:45:19;11;6;5
57049;PMS7003;42935;50.966;16.992;2023-12-20T08:49:09;5;5;3
57049;PMS7003;42935;50.966;16.992;2023-12-20T08:52:39;6;4;3
57049;PMS7003;42935;50.966;16.992;2023-12-20T08:56:01;4;3;1
57049;PMS7003;42935;50.966;16.992;2023-12-20T08:59:22;4;4;3
57049;PMS7003;42935;50.966;16.992;2023-12-20T09:02:47;3;2;2
57049;PMS7003;42935;50.966;16.992;2023-12-20T09:06:08;4;2;2
57049;PMS7003;42935;50.966;16.992;2023-12-20T09:09:29;3;2;1
57049;PMS7003;42935;50.966;16.992;2023-12-20T09:12:57;2;1;0
57049;PMS7003;42935;50.966;16.992;2023-12-20T09:16:15;0;0;0
57049;PMS7003;42935;50.966;16.992;2023-12-20T09:19:32;0;0;0
57049;PMS7003;42935;50.966;16.992;2023-12-20T09:22:49;0;0;0
57049;PMS7003;42935;50.966;16.992;2023-12-20T09:26:08;0;0;0
57049;PMS7003;42935;50.966;16.992;2023-12-20T09:29:58;0;0;0
57049;PMS7003;42935;50.966;16.992;2023-12-20T09:33:19;3;0;0
57049;PMS7003;42935;50.966;16.992;2023-12-20T09:36:38;0;0;0
57049;PMS7003;42935;50.966;16.992;2023-12-20T09:40:07;2;0;0
57049;PMS7003;42935;50.966;16.992;2023-12-20T09:43:59;2;0;0
57049;PMS7003;42935;50.966;16.992;2023-12-20T09:47:20;0;0;0
57049;PMS7003;42935;50.966;16.992;2023-12-20T09:50:46;1;1;1
57049;PMS7003;42935;50.966;16.992;2023-12-20T09:54:17;0;0;0
57049;PMS7003;42935;50.966;16.992;2023-12-20T09:58:10;1;0;0
57049;PMS7003;42935;50.966;16.992;2023-12-20T10:01:28;0;0;0
57049;PMS7003;42935;50.966;16.992;2023-12-20T10:04:48;1;0;0
57049;PMS7003;42935;50.966;16.992;2023-12-20T10:08:09;1;0;0
57049;PMS7003;42935;50.966;16.992;2023-12-20T10:11:25;2;0;0
57049;PMS7003;42935;50.966;16.992;2023-12-20T10:14:43;0;0;0
57049;PMS7003;42935;50.966;16.992;2023-12-20T10:18:03;1;1;1
57049;PMS7003;42935;50.966;16.992;2023-12-20T10:21:22;2;0;0
57049;PMS7003;42935;50.966;16.992;2023-12-20T10:24:41;1;1;0
57049;PMS7003;42935;50.966;16.992;2023-12-20T10:31:59;3;2;2
57049;PMS7003;42935;50.966;16.992;2023-12-20T10:35:20;3;3;1
57049;PMS7003;42935;50.966;16.992;2023-12-20T10:38:41;1;1;1
57049;PMS7003;42935;50.966;16.992;2023-12-20T10:42:04;3;1;1
57049;PMS7003;42935;50.966;16.992;2023-12-20T10:45:25;4;1;1
57049;PMS7003;42935;50.966;16.992;2023-12-20T10:48:47;3;2;1
57049;PMS7003;42935;50.966;16.992;2023-12-20T10:52:07;3;2;1
57049;PMS7003;42935;50.966;16.992;2023-12-20T10:55:31;3;1;1
57049;PMS7003;42935;50.966;16.992;2023-12-20T10:58:48;3;1;1
57049;PMS7003;42935;50.966;16.992;2023-12-20T11:02:08;2;1;1
57049;PMS7003;42935;50.966;16.992;2023-12-20T11:06:07;3;2;1
57049;PMS7003;42935;50.966;16.992;2023-12-20T11:14:24;1;1;0
57049;PMS7003;42935;50.966;16.992;2023-12-20T11:17:54;1;1;0
57049;PMS7003;42935;50.966;16.992;2023-12-20T11:21:47;2;1;1
57049;PMS7003;42935;50.966;16.992;2023-12-20T11:25:07;5;1;1
57049;PMS7003;42935;50.966;16.992;2023-12-20T11:28:27;5;2;1
57049;PMS7003;42935;50.966;16.992;2023-12-20T11:31:47;2;2;1
57049;PMS7003;42935;50.966;16.992;2023-12-20T11:38:38;1;1;1
57049;PMS7003;42935;50.966;16.992;2023-12-20T11:42:04;2;1;1
57049;PMS7003;42935;50.966;16.992;2023-12-20T11:49:24;2;2;1
57049;PMS7003;42935;50.966;16.992;2023-12-20T11:52:47;5;1;1
57049;PMS7003;42935;50.966;16.992;2023-12-20T11:56:33;3;2;2
57049;PMS7003;42935;50.966;16.992;2023-12-20T11:59:54;3;2;2
57049;PMS7003;42935;50.966;16.992;2023-12-20T12:03:15;1;1;1
57049;PMS7003;42935;50.966;16.992;2023-12-20T12:07:06;2;2;1
57049;PMS7003;42935;50.966;16.992;2023-12-20T12:10:22;3;2;1
57049;PMS7003;42935;50.966;16.992;2023-12-20T12:13:42;1;1;1
57049;PMS7003;42935;50.966;16.992;2023-12-20T12:17:01;1;1;1
57049;PMS7003;42935;50.966;16.992;2023-12-20T12:20:20;3;2;1
57049;PMS7003;42935;50.966;16.992;2023-12-20T12:23:40;1;1;1
57049;PMS7003;42935;50.966;16.992;2023-12-20T12:27:29;2;2;1
57049;PMS7003;42935;50.966;16.992;2023-12-20T12:34:17;3;2;2
57049;PMS7003;42935;50.966;16.992;2023-12-20T12:37:37;1;1;0
57049;PMS7003;42935;50.966;16.992;2023-12-20T12:40:57;1;1;1
57049;PMS7003;42935;50.966;16.992;2023-12-20T12:44:17;3;2;1
57049;PMS7003;42935;50.966;16.992;2023-12-20T12:48:07;2;1;1
57049;PMS7003;42935;50.966;16.992;2023-12-20T12:51:26;7;4;2
57049;PMS7003;42935;50.966;16.992;2023-12-20T12:54:46;4;3;2
57049;PMS7003;42935;50.966;16.992;2023-12-20T12:58:06;4;3;2
57049;PMS7003;42935;50.966;16.992;2023-12-20T13:01:21;2;2;1
57049;PMS7003;42935;50.966;16.992;2023-12-20T13:04:37;5;2;1
57049;PMS7003;42935;50.966;16.992;2023-12-20T13:07:57;6;2;2
57049;PMS7003;42935;50.966;16.992;2023-12-20T13:11:17;2;1;1
57049;PMS7003;42935;50.966;16.992;2023-12-20T13:14:39;2;1;1
57049;PMS7003;42935;50.966;16.992;2023-12-20T13:18:02;2;2;1
57049;PMS7003;42935;50.966;16.992;2023-12-20T13:21:21;3;1;1
57049;PMS7003;42935;50.966;16.992;2023-12-20T13:24:44;3;1;1
57049;PMS7003;42935;50.966;16.992;2023-12-20T13:28:04;9;7;5
57049;PMS7003;42935;50.966;16.992;2023-12-20T13:31:23;9;5;4
57049;PMS7003;42935;50.966;16.992;2023-12-20T13:34:39;4;2;1
57049;PMS7003;42935;50.966;16.992;2023-12-20T13:37:58;3;1;1
57049;PMS7003;42935;50.966;16.992;2023-12-20T13:41:18;3;1;1
57049;PMS7003;42935;50.966;16.992;2023-12-20T13:44:37;4;1;1
57049;PMS7003;42935;50.966;16.992;2023-12-20T13:47:58;6;3;2
57049;PMS7003;42935;50.966;16.992;2023-12-20T13:51:15;10;2;1
57049;PMS7003;42935;50.966;16.992;2023-12-20T13:54:33;8;5;2
57049;PMS7003;42935;50.966;16.992;2023-12-20T13:57:50;4;4;3
57049;PMS7003;42935;50.966;16.992;2023-12-20T14:01:06;7;4;2
57049;PMS7003;42935;50.966;16.992;2023-12-20T14:04:26;3;3;2
57049;PMS7003;42935;50.966;16.992;2023-12-20T14:07:46;4;1;0
57049;PMS7003;42935;50.966;16.992;2023-12-20T14:11:06;6;2;1
57049;PMS7003;42935;50.966;16.992;2023-12-20T14:14:23;2;2;1
57049;PMS7003;42935;50.966;16.992;2023-12-20T14:17:43;6;2;2
57049;PMS7003;42935;50.966;16.992;2023-12-20T14:21:00;6;1;1
57049;PMS7003;42935;50.966;16.992;2023-12-20T14:24:16;4;1;1
57049;PMS7003;42935;50.966;16.992;2023-12-20T14:27:38;6;2;2
57049;PMS7003;42935;50.966;16.992;2023-12-20T14:30:59;4;3;2
57049;PMS7003;42935;50.966;16.992;2023-12-20T14:34:19;5;3;1
57049;PMS7003;42935;50.966;16.992;2023-12-20T14:37:44;7;4;2
57049;PMS7003;42935;50.966;16.992;2023-12-20T14:41:03;4;3;2
57049;PMS7003;42935;50.966;16.992;2023-12-20T14:44:56;4;3;2
57049;PMS7003;42935;50.966;16.992;2023-12-20T14:48:16;6;2;1
57049;PMS7003;42935;50.966;16.992;2023-12-20T14:51:37;4;2;1
57049;PMS7003;42935;50.966;16.992;2023-12-20T14:55:27;6;2;2
57049;PMS7003;42935;50.966;16.992;2023-12-20T14:58:47;5;2;1
57049;PMS7003;42935;50.966;16.992;2023-12-20T15:02:07;6;5;2
57049;PMS7003;42935;50.966;16.992;2023-12-20T15:05:29;9;5;3
57049;PMS7003;42935;50.966;16.992;2023-12-20T15:08:45;9;6;4
57049;PMS7003;42935;50.966;16.992;2023-12-20T15:12:12;10;7;3
57049;PMS7003;42935;50.966;16.992;2023-12-20T15:15:31;11;4;2
57049;PMS7003;42935;50.966;16.992;2023-12-20T15:18:52;11;6;3
57049;PMS7003;42935;50.966;16.992;2023-12-20T15:22:12;2;1;1
57049;PMS7003;42935;50.966;16.992;2023-12-20T15:25:32;3;2;1
57049;PMS7003;42935;50.966;16.992;2023-12-20T15:28:52;3;1;1
57049;PMS7003;42935;50.966;16.992;2023-12-20T15:32:12;4;3;2
57049;PMS7003;42935;50.966;16.992;2023-12-20T15:35:32;4;2;1
57049;PMS7003;42935;50.966;16.992;2023-12-20T15:38:52;6;2;2
57049;PMS7003;42935;50.966;16.992;2023-12-20T15:42:11;5;3;2
57049;PMS7003;42935;50.966;16.992;2023-12-20T15:45:28;2;2;2
57049;PMS7003;42935;50.966;16.992;2023-12-20T15:48:44;6;4;3
57049;PMS7003;42935;50.966;16.992;2023-12-20T15:52:04;9;6;4
57049;PMS7003;42935;50.966;16.992;2023-12-20T15:55:23;7;4;3
57049;PMS7003;42935;50.966;16.992;2023-12-20T15:58:45;11;7;5
57049;PMS7003;42935;50.966;16.992;2023-12-20T16:02:09;11;7;5
57049;PMS7003;42935;50.966;16.992;2023-12-20T16:05:33;16;9;5
57049;PMS7003;42935;50.966;16.992;2023-12-20T16:08:52;11;7;5
57049;PMS7003;42935;50.966;16.992;2023-12-20T16:12:14;8;7;4
57049;PMS7003;42935;50.966;16.992;2023-12-20T16:15:35;13;8;6
57049;PMS7003;42935;50.966;16.992;2023-12-20T16:18:54;15;11;7
57049;PMS7003;42935;50.966;16.992;2023-12-20T16:22:11;13;11;8
57049;PMS7003;42935;50.966;16.992;2023-12-20T16:25:32;7;7;5
57049;PMS7003;42935;50.966;16.992;2023-12-20T16:28:57;10;6;4
57049;PMS7003;42935;50.966;16.992;2023-12-20T16:32:20;9;5;4
57049;PMS7003;42935;50.966;16.992;2023-12-20T16:35:40;8;6;4
57049;PMS7003;42935;50.966;16.992;2023-12-20T16:39:00;7;5;4
57049;PMS7003;42935;50.966;16.992;2023-12-20T16:42:19;4;3;2
57049;PMS7003;42935;50.966;16.992;2023-12-20T16:45:41;5;4;3
57049;PMS7003;42935;50.966;16.992;2023-12-20T16:48:58;5;3;2
57049;PMS7003;42935;50.966;16.992;2023-12-20T16:52:15;7;4;2
57049;PMS7003;42935;50.966;16.992;2023-12-20T16:55:35;6;4;3
57049;PMS7003;42935;50.966;16.992;2023-12-20T16:58:55;4;3;2
57049;PMS7003;42935;50.966;16.992;2023-12-20T17:02:16;8;4;2
57049;PMS7003;42935;50.966;16.992;2023-12-20T17:06:09;6;4;2
57049;PMS7003;42935;50.966;16.992;2023-12-20T17:09:27;4;4;3
57049;PMS7003;42935;50.966;16.992;2023-12-20T17:12:52;6;6;4
57049;PMS7003;42935;50.966;16.992;2023-12-20T17:16:12;7;5;2
57049;PMS7003;42935;50.966;16.992;2023-12-20T17:19:31;6;4;3
57049;PMS7003;42935;50.966;16.992;2023-12-20T17:22:51;4;4;3
57049;PMS7003;42935;50.966;16.992;2023-12-20T17:26:19;8;6;5
57049;PMS7003;42935;50.966;16.992;2023-12-20T17:29:39;5;4;4
57049;PMS7003;42935;50.966;16.992;2023-12-20T17:33:01;5;5;3
57049;PMS7003;42935;50.966;16.992;2023-12-20T17:36:21;9;5;4
57049;PMS7003;42935;50.966;16.992;2023-12-20T17:39:39;8;5;4
57049;PMS7003;42935;50.966;16.992;2023-12-20T17:43:01;7;4;3
57049;PMS7003;42935;50.966;16.992;2023-12-20T17:46:20;3;3;2
57049;PMS7003;42935;50.966;16.992;2023-12-20T17:49:41;4;2;2
57049;PMS7003;42935;50.966;16.992;2023-12-20T17:53:01;5;4;2
57049;PMS7003;42935;50.966;16.992;2023-12-20T17:56:23;5;3;2
57049;PMS7003;42935;50.966;16.992;2023-12-20T17:59:45;4;4;2
57049;PMS7003;42935;50.966;16.992;2023-12-20T18:03:02;7;2;2
57049;PMS7003;42935;50.966;16.992;2023-12-20T18:06:18;5;2;1
57049;PMS7003;42935;50.966;16.992;2023-12-20T18:09:38;2;2;2
57049;PMS7003;42935;50.966;16.992;2023-12-20T18:12:58;7;4;3
57049;PMS7003;42935;50.966;16.992;2023-12-20T18:16:22;6;5;3
57049;PMS7003;42935;50.966;16.992;2023-12-20T18:19:42;6;3;2
57049;PMS7003;42935;50.966;16.992;2023-12-20T18:23:03;5;4;3
57049;PMS7003;42935;50.966;16.992;2023-12-20T18:26:24;5;4;2
57049;PMS7003;42935;50.966;16.992;2023-12-20T18:29:41;6;3;1
57049;PMS7003;42935;50.966;16.992;2023-12-20T18:32:57;8;5;4
57049;PMS7003;42935;50.966;16.992;2023-12-20T18:36:47;6;3;2
57049;PMS7003;42935;50.966;16.992;2023-12-20T18:40:05;6;4;3
57049;PMS7003;42935;50.966;16.992;2023-12-20T18:43:28;3;1;1
57049;PMS7003;42935;50.966;16.992;2023-12-20T18:46:51;1;1;1
57049;PMS7003;42935;50.966;16.992;2023-12-20T18:50:11;3;2;1
57049;PMS7003;42935;50.966;16.992;2023-12-20T18:54:02;4;2;1
57049;PMS7003;42935;50.966;16.992;2023-12-20T18:57:17;4;1;0
57049;PMS7003;42935;50.966;16.992;2023-12-20T19:00:35;3;2;1
57049;PMS7003;42935;50.966;16.992;2023-12-20T19:03:56;4;2;1
57049;PMS7003;42935;50.966;16.992;2023-12-20T19:07:19;1;1;1
57049;PMS7003;42935;50.966;16.992;2023-12-20T19:10:40;3;1;1
57049;PMS7003;42935;50.966;16.992;2023-12-20T19:13:55;4;1;0
57049;PMS7003;42935;50.966;16.992;2023-12-20T19:17:46;2;1;1
57049;PMS7003;42935;50.966;16.992;2023-12-20T19:21:05;2;1;1
57049;PMS7003;42935;50.966;16.992;2023-12-20T19:24:25;3;2;1
57049;PMS7003;42935;50.966;16.992;2023-12-20T19:28:13;9;4;2
57049;PMS7003;42935;50.966;16.992;2023-12-20T19:31:33;7;7;4
57049;PMS7003;42935;50.966;16.992;2023-12-20T19:34:52;7;3;2
57049;PMS7003;42935;50.966;16.992;2023-12-20T19:38:12;4;2;2
57049;PMS7003;42935;50.966;16.992;2023-12-20T19:41:37;6;4;2
57049;PMS7003;42935;50.966;16.992;2023-12-20T19:44:55;2;2;1
57049;PMS7003;42935;50.966;16.992;2023-12-20T19:48:18;2;2;2
57049;PMS7003;42935;50.966;16.992;2023-12-20T19:51:35;2;2;1
57049;PMS7003;42935;50.966;16.992;2023-12-20T19:54:55;1;1;1
57049;PMS7003;42935;50.966;16.992;2023-12-20T19:58:13;1;0;0
57049;PMS7003;42935;50.966;16.992;2023-12-20T20:01:34;5;2;1
57049;PMS7003;42935;50.966;16.992;2023-12-20T20:04:54;1;0;0
57049;PMS7003;42935;50.966;16.992;2023-12-20T20:08:14;3;1;1
57049;PMS7003;42935;50.966;16.992;2023-12-20T20:11:35;1;1;1
57049;PMS7003;42935;50.966;16.992;2023-12-20T20:14:55;3;1;0
57049;PMS7003;42935;50.966;16.992;2023-12-20T20:18:23;3;2;1
57049;PMS7003;42935;50.966;16.992;2023-12-20T20:21:43;5;1;1
57049;PMS7003;42935;50.966;16.992;2023-12-20T20:25:05;8;3;2
57049;PMS7003;42935;50.966;16.992;2023-12-20T20:28:26;5;3;1
57049;PMS7003;42935;50.966;16.992;2023-12-20T20:31:47;4;3;1
57049;PMS7003;42935;50.966;16.992;2023-12-20T20:35:08;6;4;2
57049;PMS7003;42935;50.966;16.992;2023-12-20T20:38:25;5;2;1
57049;PMS7003;42935;50.966;16.992;2023-12-20T20:41:38;6;3;3
57049;PMS7003;42935;50.966;16.992;2023-12-20T20:44:58;4;3;2
57049;PMS7003;42935;50.966;16.992;2023-12-20T20:48:20;7;5;4
57049;PMS7003;42935;50.966;16.992;2023-12-20T20:51:41;13;12;8
57049;PMS7003;42935;50.966;16.992;2023-12-20T20:55:02;8;7;5
57049;PMS7003;42935;50.966;16.992;2023-12-20T20:58:21;5;4;3
57049;PMS7003;42935;50.966;16.992;2023-12-20T21:01:42;10;7;4
57049;PMS7003;42935;50.966;16.992;2023-12-20T21:04:58;4;2;2
57049;PMS7003;42935;50.966;16.992;2023-12-20T21:08:21;6;4;3
57049;PMS7003;42935;50.966;16.992;2023-12-20T21:11:40;4;3;1
57049;PMS7003;42935;50.966;16.992;2023-12-20T21:15:00;4;3;2
57049;PMS7003;42935;50.966;16.992;2023-12-20T21:18:21;5;4;3
57049;PMS7003;42935;50.966;16.992;2023-12-20T21:21:40;5;5;2
57049;PMS7003;42935;50.966;16.992;2023-12-20T21:25:03;8;3;3
57049;PMS7003;42935;50.966;16.992;2023-12-20T21:28:27;7;4;3
57049;PMS7003;42935;50.966;16.992;2023-12-20T21:31:47;4;3;2
57049;PMS7003;42935;50.966;16.992;2023-12-20T21:35:07;6;5;3
57049;PMS7003;42935;50.966;16.992;2023-12-20T21:38:27;7;6;4
57049;PMS7003;42935;50.966;16.992;2023-12-20T21:41:46;8;4;4
57049;PMS7003;42935;50.966;16.992;2023-12-20T21:45:06;9;3;2
57049;PMS7003;42935;50.966;16.992;2023-12-20T21:48:26;7;5;3
57049;PMS7003;42935;50.966;16.992;2023-12-20T21:51:48;7;5;4
57049;PMS7003;42935;50.966;16.992;2023-12-20T21:55:09;7;6;3
57049;PMS7003;42935;50.966;16.992;2023-12-20T21:58:28;9;5;3
57049;PMS7003;42935;50.966;16.992;2023-12-20T22:01:45;10;6;5
57049;PMS7003;42935;50.966;16.992;2023-12-20T22:05:04;4;4;3
57049;PMS7003;42935;50.966;16.992;2023-12-20T22:08:24;6;4;3
57049;PMS7003;42935;50.966;16.992;2023-12-20T22:11:42;4;3;1
57049;PMS7003;42935;50.966;16.992;2023-12-20T22:15:01;1;0;0
57049;PMS7003;42935;50.966;16.992;2023-12-20T22:18:15;3;1;1
57049;PMS7003;42935;50.966;16.992;2023-12-20T22:21:31;2;1;1
57049;PMS7003;42935;50.966;16.992;2023-12-20T22:24:51;2;0;0
57049;PMS7003;42935;50.966;16.992;2023-12-20T22:28:09;0;0;0